Time;durP1;ratioP1;P1;durP2;ratioP2;P2;SDS_P1;SDS_P2;PMS_P1;PMS_P2;Temp;Humidity;BMP_temperature;BMP_pressure;BME280_temperature;BME280_humidity;BME280_pressure;Samples;Min_cycle;Max_cycle;Signal;HPM_P1;HPM_P2
2022/05/21 00:00:28;;;;;;;5.68;2.80;;;19.90;54.10;;;;;;7366256;19;20521;-75
2022/05/21 00:02:57;;;;;;;9.65;3.13;;;19.90;54.20;;;;;;7386935;19;20102;-75
2022/05/21 00:05:27;;;;;;;6.85;2.28;;;19.90;54.10;;;;;;7364907;19;20079;-74
2022/05/21 00:07:59;;;;;;;6.88;2.65;;;19.80;54.20;;;;;;7364411;19;20022;-74
2022/05/21 00:10:29;;;;;;;8.27;2.70;;;19.80;54.20;;;;;;7365947;19;20023;-74
2022/05/21 00:12:59;;;;;;;3.97;2.53;;;19.80;54.30;;;;;;7372277;19;20557;-74
2022/05/21 00:15:31;;;;;;;7.72;2.60;;;19.80;54.40;;;;;;7371834;19;20090;-75
2022/05/21 00:18:00;;;;;;;7.82;2.63;;;19.70;54.50;;;;;;7390017;19;20020;-75
2022/05/21 00:23:16;;;;;;;5.22;2.50;;;19.60;54.70;;;;;;7368728;19;20414;-75
2022/05/21 00:25:46;;;;;;;3.70;2.28;;;19.60;54.80;;;;;;7370653;19;20082;-74
2022/05/21 00:28:15;;;;;;;10.00;3.47;;;19.60;54.80;;;;;;7370354;19;20010;-75
2022/05/21 00:30:44;;;;;;;7.25;3.30;;;19.60;54.60;;;;;;7373126;19;20074;-74
2022/05/21 00:33:12;;;;;;;6.28;3.05;;;19.70;54.50;;;;;;7369010;19;20026;-74
2022/05/21 00:35:41;;;;;;;4.72;2.70;;;19.70;54.50;;;;;;7391524;19;20022;-74
2022/05/21 00:38:13;;;;;;;5.82;2.72;;;19.70;55.10;;;;;;7369662;19;20046;-74
2022/05/21 00:40:42;;;;;;;5.70;2.70;;;19.70;54.20;;;;;;7370538;19;20019;-74
2022/05/21 00:43:39;;;;;;;7.13;2.83;;;19.70;54.10;;;;;;7370257;19;20007;-74
2022/05/21 00:46:12;;;;;;;8.10;3.60;;;19.70;53.90;;;;;;7371190;19;20021;-74
2022/05/21 00:48:46;;;;;;;5.97;2.75;;;19.60;53.90;;;;;;7372023;19;20035;-74
2022/05/21 00:51:20;;;;;;;5.72;2.78;;;19.50;54.10;;;;;;7368442;19;20011;-75
2022/05/21 00:53:55;;;;;;;5.28;2.90;;;19.50;54.30;;;;;;7393274;19;20025;-74
2022/05/21 00:56:26;;;;;;;6.22;2.50;;;19.50;54.40;;;;;;7369493;19;20507;-75
2022/05/21 01:01:45;;;;;;;6.95;3.35;;;19.50;54.30;;;;;;7372040;19;20011;-74
2022/05/21 01:04:14;;;;;;;9.73;4.65;;;19.50;53.80;;;;;;7369735;19;20025;-75
2022/05/21 01:06:43;;;;;;;11.88;4.57;;;19.50;54.00;;;;;;7368871;19;20014;-75
2022/05/21 01:09:14;;;;;;;12.10;3.28;;;19.50;54.90;;;;;;7371189;19;20019;-75
2022/05/21 01:11:43;;;;;;;11.23;2.85;;;19.50;54.10;;;;;;7391978;19;20015;-74
2022/05/21 01:14:13;;;;;;;9.57;3.08;;;19.40;54.30;;;;;;7367293;19;20026;-74
2022/05/21 01:16:44;;;;;;;6.82;2.90;;;19.30;54.40;;;;;;7369954;19;20043;-74
2022/05/21 01:19:14;;;;;;;8.68;2.58;;;19.30;54.50;;;;;;7368985;19;20458;-75
2022/05/21 01:21:43;;;;;;;6.68;3.05;;;19.20;54.80;;;;;;7370917;19;20018;-75
2022/05/21 01:24:15;;;;;;;8.10;3.00;;;19.10;54.90;;;;;;7369949;19;20027;-75
2022/05/21 01:26:45;;;;;;;7.60;2.78;;;19.10;55.00;;;;;;7391685;19;20049;-74
2022/05/21 01:29:21;;;;;;;7.35;2.50;;;19.20;55.10;;;;;;7367859;19;20097;-74
2022/05/21 01:31:54;;;;;;;5.75;2.35;;;19.20;55.00;;;;;;7367096;19;20021;-75
2022/05/21 01:34:26;;;;;;;6.70;3.15;;;19.20;54.90;;;;;;7369887;19;20333;-74
2022/05/21 01:36:55;;;;;;;4.13;2.50;;;19.30;54.70;;;;;;7369093;19;20093;-75
2022/05/21 01:39:26;;;;;;;5.85;2.78;;;19.20;54.40;;;;;;7369370;19;20020;-75
2022/05/21 01:41:55;;;;;;;5.07;2.33;;;19.30;54.50;;;;;;7393107;19;20035;-75
2022/05/21 01:47:05;;;;;;;6.47;2.60;;;19.30;54.60;;;;;;7370699;19;20463;-74
2022/05/21 01:49:34;;;;;;;5.95;2.60;;;19.30;54.60;;;;;;7368833;19;20015;-74
2022/05/21 01:52:03;;;;;;;7.85;2.60;;;19.30;54.60;;;;;;7368008;19;20010;-74
2022/05/21 01:54:35;;;;;;;6.28;2.92;;;19.20;54.60;;;;;;7371622;19;20022;-74
2022/05/21 01:57:05;;;;;;;3.85;2.45;;;19.20;54.70;;;;;;7374327;19;20006;-74
2022/05/21 01:59:33;;;;;;;6.38;2.85;;;19.20;54.80;;;;;;7411638;19;20022;-74
2022/05/21 02:02:03;;;;;;;11.02;2.78;;;19.20;54.80;;;;;;7371300;19;20039;-74
2022/05/21 02:04:32;;;;;;;4.50;2.50;;;19.20;54.90;;;;;;7372931;19;20359;-74
2022/05/21 02:07:01;;;;;;;5.35;2.63;;;19.10;55.00;;;;;;7369814;19;20018;-74
2022/05/21 02:09:30;;;;;;;6.68;2.58;;;19.10;55.10;;;;;;7370863;19;20089;-75
2022/05/21 02:12:01;;;;;;;7.47;2.90;;;19.10;55.00;;;;;;7391510;19;20023;-74
2022/05/21 02:14:30;;;;;;;5.57;2.50;;;19.00;55.20;;;;;;7368548;19;20373;-75
2022/05/21 02:16:59;;;;;;;5.60;2.50;;;19.10;55.30;;;;;;7365507;19;20019;-74
2022/05/21 02:19:27;;;;;;;5.75;2.80;;;19.10;55.30;;;;;;7369183;19;20022;-74
2022/05/21 02:21:56;;;;;;;6.90;2.58;;;19.10;55.40;;;;;;7364838;19;20099;-75
2022/05/21 02:24:25;;;;;;;6.68;2.67;;;19.10;55.40;;;;;;7367330;19;20050;-75
2022/05/21 02:26:54;;;;;;;4.03;2.42;;;19.10;56.00;;;;;;7390466;19;20024;-75
2022/05/21 02:29:25;;;;;;;6.63;2.40;;;19.10;55.40;;;;;;7368453;19;20185;-75
2022/05/21 02:31:54;;;;;;;5.28;2.30;;;19.10;55.40;;;;;;7368141;19;20022;-75
2022/05/21 02:34:23;;;;;;;4.65;2.25;;;19.10;55.30;;;;;;7366407;19;20448;-74
2022/05/21 02:39:35;;;;;;;4.93;2.45;;;19.10;55.30;;;;;;7366158;19;20355;-75
2022/05/21 02:42:04;;;;;;;6.03;2.50;;;19.10;55.60;;;;;;7377453;19;20022;-76
2022/05/21 02:44:56;;;;;;;4.93;2.40;;;19.10;55.90;;;;;;7385330;19;20022;-75
2022/05/21 02:47:25;;;;;;;;;;;19.00;55.80;;;;;;7366975;19;20018;-75
2022/05/21 02:49:53;;;;;;;5.93;2.70;;;19.00;55.80;;;;;;7364384;19;19926;-75
2022/05/21 02:52:22;;;;;;;4.93;2.35;;;19.00;55.60;;;;;;7363736;19;20025;-75
2022/05/21 02:54:53;;;;;;;6.00;2.45;;;19.00;55.70;;;;;;7364890;19;20098;-75
2022/05/21 02:57:22;;;;;;;4.95;2.85;;;18.90;55.80;;;;;;7362318;19;20133;-75
2022/05/21 02:59:51;;;;;;;3.95;2.33;;;19.00;55.90;;;;;;7385668;19;20011;-75
2022/05/21 03:02:23;;;;;;;7.38;3.10;;;18.90;55.80;;;;;;7364986;19;20010;-74
2022/05/21 03:04:52;;;;;;;7.57;2.53;;;18.90;55.90;;;;;;7364834;19;20074;-75
2022/05/21 03:07:20;;;;;;;4.32;2.35;;;18.90;55.80;;;;;;7361535;19;20034;-75
2022/05/21 03:12:30;;;;;;;5.80;3.05;;;18.80;56.30;;;;;;7362214;19;20499;-74
2022/05/21 03:14:59;;;;;;;7.13;2.53;;;18.90;56.20;;;;;;7385317;19;20209;-74
2022/05/21 03:17:31;;;;;;;6.40;2.78;;;18.90;56.50;;;;;;7363256;19;20102;-74
2022/05/21 03:20:00;;;;;;;4.28;2.80;;;18.80;56.50;;;;;;7367483;19;20011;-74
2022/05/21 03:22:29;;;;;;;3.92;2.30;;;18.90;56.60;;;;;;7368286;19;20011;-74
2022/05/21 03:24:58;;;;;;;4.95;2.50;;;18.90;56.70;;;;;;7365874;19;20014;-74
2022/05/21 03:27:28;;;;;;;3.83;2.53;;;18.90;56.70;;;;;;7365895;19;20605;-74
2022/05/21 03:29:56;;;;;;;3.30;2.20;;;18.90;56.60;;;;;;7390413;19;20121;-74
2022/05/21 03:32:29;;;;;;;4.07;2.38;;;19.00;56.70;;;;;;7364056;19;20015;-74
2022/05/21 03:35:00;;;;;;;7.05;2.70;;;18.90;56.60;;;;;;7363322;19;20074;-74
2022/05/21 03:37:29;;;;;;;3.95;2.40;;;19.00;56.60;;;;;;7365890;19;20389;-73
2022/05/21 03:39:57;;;;;;;5.18;2.65;;;18.90;56.50;;;;;;7366377;19;20109;-74
2022/05/21 03:42:26;;;;;;;4.22;2.58;;;18.90;56.50;;;;;;7368631;19;20035;-74
2022/05/21 03:44:55;;;;;;;8.32;3.08;;;18.80;56.80;;;;;;7389344;19;20134;-74
2022/05/21 03:47:24;;;;;;;7.60;2.70;;;18.80;57.00;;;;;;7373370;19;20010;-73
2022/05/21 03:49:52;;;;;;;4.50;2.38;;;18.80;57.20;;;;;;7372267;19;20020;-74
2022/05/21 03:52:24;;;;;;;10.60;2.90;;;18.80;57.30;;;;;;7372858;19;20011;-74
2022/05/21 03:54:53;;;;;;;;;;;18.80;57.60;;;;;;7376662;19;20074;-74
2022/05/21 03:57:22;;;;;;;7.07;2.47;;;18.80;57.60;;;;;;7373713;19;19926;-74
2022/05/21 03:59:50;;;;;;;4.88;2.65;;;18.90;57.50;;;;;;7394448;19;20585;-74
2022/05/21 04:02:19;;;;;;;7.05;2.80;;;18.90;57.40;;;;;;7372734;19;20011;-74
2022/05/21 04:04:48;;;;;;;7.47;2.50;;;18.90;57.30;;;;;;7373469;19;20019;-75
2022/05/21 04:07:17;;;;;;;5.88;2.15;;;18.90;57.30;;;;;;7372734;19;20385;-74
2022/05/21 04:09:49;;;;;;;5.35;2.67;;;19.00;57.30;;;;;;7375810;19;20125;-75
2022/05/21 04:12:17;;;;;;;5.13;2.72;;;18.90;57.10;;;;;;7370933;19;20050;-75
2022/05/21 04:14:46;;;;;;;5.63;2.65;;;18.90;57.30;;;;;;7395884;19;20025;-75
2022/05/21 04:17:16;;;;;;;8.05;2.60;;;18.90;57.00;;;;;;7372101;19;20307;-74
2022/05/21 04:19:45;;;;;;;8.02;2.72;;;18.80;57.10;;;;;;7373124;19;20039;-75
2022/05/21 04:22:14;;;;;;;4.35;2.45;;;18.80;57.10;;;;;;7373259;19;20861;-72
2022/05/21 04:24:42;;;;;;;6.97;2.50;;;18.70;57.20;;;;;;7372139;19;20010;-72
2022/05/21 04:27:14;;;;;;;10.63;2.65;;;18.70;57.50;;;;;;7372840;19;20022;-72
2022/05/21 04:29:42;;;;;;;4.90;2.90;;;18.70;57.60;;;;;;7395684;19;20026;-73
2022/05/21 04:32:11;;;;;;;5.28;2.78;;;18.70;57.30;;;;;;7373463;19;20342;-72
2022/05/21 04:34:40;;;;;;;6.60;2.55;;;18.80;57.40;;;;;;7374462;19;20014;-72
2022/05/21 04:37:09;;;;;;;4.75;2.80;;;18.80;57.40;;;;;;7371380;19;20078;-72
2022/05/21 04:39:38;;;;;;;8.00;2.53;;;18.70;57.30;;;;;;7373831;19;20471;-72
2022/05/21 04:42:08;;;;;;;6.22;2.60;;;18.70;57.20;;;;;;7374039;19;20086;-74
2022/05/21 04:44:39;;;;;;;5.00;2.85;;;18.70;57.30;;;;;;7393736;19;20118;-74
2022/05/21 04:47:09;;;;;;;3.72;2.53;;;18.60;57.40;;;;;;7372660;19;20090;-74
2022/05/21 04:49:38;;;;;;;6.80;2.80;;;18.50;57.70;;;;;;7372041;19;20042;-72
2022/05/21 04:52:07;;;;;;;5.22;3.05;;;18.50;57.60;;;;;;7371093;19;20043;-72
2022/05/21 04:54:39;;;;;;;5.35;2.72;;;18.50;57.90;;;;;;7372431;19;20022;-73
2022/05/21 04:57:09;;;;;;;10.52;3.35;;;18.60;58.10;;;;;;7369645;19;20021;-72
2022/05/21 04:59:40;;;;;;;8.52;2.80;;;18.50;58.10;;;;;;7391590;19;20399;-72
2022/05/21 05:02:09;;;;;;;6.30;3.00;;;18.60;58.20;;;;;;7369793;19;20018;-72
2022/05/21 05:04:38;;;;;;;8.25;3.40;;;18.60;58.20;;;;;;7369431;19;20006;-73
2022/05/21 05:07:12;;;;;;;5.53;3.00;;;18.70;58.40;;;;;;7368121;19;20106;-72
2022/05/21 05:09:42;;;;;;;5.28;3.05;;;18.70;58.50;;;;;;7371528;19;20033;-73
2022/05/21 05:12:12;;;;;;;7.00;2.63;;;18.70;58.60;;;;;;7372097;19;20057;-73
2022/05/21 05:14:43;;;;;;;8.07;2.92;;;18.80;58.60;;;;;;7394156;19;20043;-73
2022/05/21 05:17:15;;;;;;;5.80;2.80;;;18.80;58.50;;;;;;7370084;19;20440;-72
2022/05/21 05:19:46;;;;;;;6.60;2.80;;;18.80;58.30;;;;;;7370148;19;20557;-73
2022/05/21 05:22:15;;;;;;;4.90;2.40;;;18.80;58.40;;;;;;7370043;19;20018;-73
2022/05/21 05:24:44;;;;;;;5.60;2.70;;;18.80;58.60;;;;;;7370788;19;20089;-73
2022/05/21 05:27:13;;;;;;;6.72;2.97;;;18.90;58.50;;;;;;7370863;19;20021;-73
2022/05/21 05:29:44;;;;;;;10.00;3.28;;;18.90;58.70;;;;;;7394118;19;20014;-72
2022/05/21 05:32:13;;;;;;;;;;;18.90;58.70;;;;;;7369706;19;20323;-72
2022/05/21 05:34:41;;;;;;;7.53;3.25;;;19.00;58.60;;;;;;7369950;19;20009;-73
2022/05/21 05:37:10;;;;;;;9.13;3.53;;;19.00;58.60;;;;;;7368161;19;20015;-73
2022/05/21 05:39:39;;;;;;;7.65;3.55;;;19.00;59.30;;;;;;7369707;19;20113;-73
2022/05/21 05:42:09;;;;;;;7.43;3.13;;;19.10;59.10;;;;;;7370920;19;20057;-73
2022/05/21 05:44:38;;;;;;;10.52;3.20;;;19.10;59.20;;;;;;7392231;19;20321;-73
2022/05/21 05:47:10;;;;;;;11.57;3.50;;;19.10;59.30;;;;;;7369712;19;20655;-73
2022/05/21 05:49:38;;;;;;;11.68;3.15;;;19.10;59.10;;;;;;7371029;19;20447;-72
2022/05/21 05:52:08;;;;;;;9.18;3.42;;;19.20;59.20;;;;;;7370000;19;20097;-72
2022/05/21 05:54:38;;;;;;;7.95;3.20;;;19.20;59.20;;;;;;7369361;19;20019;-73
2022/05/21 05:57:11;;;;;;;7.45;3.30;;;19.30;59.20;;;;;;7366895;19;20098;-73
2022/05/21 05:59:50;;;;;;;7.43;3.42;;;19.30;59.10;;;;;;7391240;19;20344;-72
2022/05/21 06:05:06;;;;;;;10.85;4.00;;;19.50;59.20;;;;;;7369578;19;20017;-72
2022/05/21 06:07:39;;;;;;;5.22;3.42;;;19.60;59.30;;;;;;7371005;19;20074;-72
2022/05/21 06:10:09;;;;;;;15.93;4.50;;;19.60;59.20;;;;;;7368075;19;20101;-72
2022/05/21 06:12:37;;;;;;;7.13;3.47;;;19.70;59.00;;;;;;7366783;19;20017;-72
2022/05/21 06:15:07;;;;;;;10.20;4.05;;;19.80;58.90;;;;;;7369858;19;20746;-72
2022/05/21 06:17:39;;;;;;;16.25;4.22;;;19.90;59.10;;;;;;7388054;19;20022;-74
2022/05/21 06:20:10;;;;;;;7.07;3.75;;;20.00;59.10;;;;;;7368649;19;20002;-74
2022/05/21 06:22:40;;;;;;;9.50;3.55;;;20.00;59.10;;;;;;7367854;19;20638;-72
2022/05/21 06:25:10;;;;;;;12.35;3.63;;;20.10;59.00;;;;;;7368923;19;20015;-73
2022/05/21 06:27:39;;;;;;;7.28;3.25;;;20.10;58.70;;;;;;7369467;19;20010;-73
2022/05/21 06:30:09;;;;;;;10.98;3.38;;;20.20;58.90;;;;;;7367968;19;20399;-73
2022/05/21 06:32:40;;;;;;;8.50;3.47;;;20.30;58.80;;;;;;7388926;19;20021;-73
2022/05/21 06:35:10;;;;;;;;;;;20.40;58.90;;;;;;7367630;19;20122;-73
2022/05/21 06:37:39;;;;;;;6.53;3.47;;;20.60;58.90;;;;;;7368216;19;19915;-73
2022/05/21 06:40:13;;;;;;;7.43;3.15;;;20.60;58.60;;;;;;7365713;19;20517;-72
2022/05/21 06:42:42;;;;;;;11.18;3.50;;;20.60;58.80;;;;;;7367470;19;20118;-73
2022/05/21 06:45:12;;;;;;;8.27;3.33;;;20.70;58.70;;;;;;7370114;19;20093;-73
2022/05/21 06:47:44;;;;;;;12.40;3.70;;;20.80;58.40;;;;;;7388694;19;20502;-73
2022/05/21 06:50:13;;;;;;;14.75;3.72;;;20.70;58.30;;;;;;7367439;19;20415;-73
2022/05/21 06:52:42;;;;;;;7.05;3.35;;;20.70;58.40;;;;;;7366727;19;20014;-73
2022/05/21 06:55:11;;;;;;;11.85;3.33;;;20.70;58.70;;;;;;7368989;19;20046;-72
2022/05/21 06:57:40;;;;;;;7.18;3.17;;;20.80;58.50;;;;;;7367527;19;20078;-73
2022/05/21 07:00:10;;;;;;;11.70;3.38;;;20.80;58.20;;;;;;7366505;19;20011;-73
2022/05/21 07:02:40;;;;;;;8.15;3.00;;;20.70;57.90;;;;;;7389462;19;20381;-72
2022/05/21 07:07:52;;;;;;;13.40;3.20;;;20.70;57.20;;;;;;7364941;19;20313;-73
2022/05/21 07:10:24;;;;;;;8.30;3.10;;;20.70;57.30;;;;;;7365907;19;20832;-73
2022/05/21 07:12:53;;;;;;;8.30;3.13;;;20.70;57.40;;;;;;7366661;19;20497;-73
2022/05/21 07:15:25;;;;;;;10.80;3.80;;;20.80;57.70;;;;;;7368561;19;20447;-73
2022/05/21 07:18:01;;;;;;;8.85;3.28;;;20.80;57.60;;;;;;7388799;19;20102;-73
2022/05/21 07:20:33;;;;;;;8.30;3.17;;;20.80;57.40;;;;;;7368662;19;20018;-73
2022/05/21 07:23:02;;;;;;;10.35;3.75;;;20.90;57.40;;;;;;7374689;19;20022;-73
2022/05/21 07:25:33;;;;;;;9.90;3.38;;;20.90;57.30;;;;;;7375345;19;20015;-73
2022/05/21 07:28:03;;;;;;;8.65;3.25;;;21.00;57.00;;;;;;7373410;19;20478;-73
2022/05/21 07:30:32;;;;;;;7.78;3.10;;;21.00;56.90;;;;;;7371942;19;20443;-73
2022/05/21 07:33:01;;;;;;;9.13;3.28;;;21.00;56.70;;;;;;7395942;19;20015;-73
2022/05/21 07:35:34;;;;;;;8.38;3.42;;;21.00;56.80;;;;;;7375699;19;20091;-73
2022/05/21 07:38:03;;;;;;;8.75;3.33;;;21.00;56.40;;;;;;7373854;19;20081;-73
2022/05/21 07:40:31;;;;;;;11.00;3.42;;;21.10;56.50;;;;;;7374282;19;20704;-73
2022/05/21 07:43:00;;;;;;;10.38;3.33;;;21.10;56.80;;;;;;7373308;19;20070;-72
2022/05/21 07:45:29;;;;;;;16.88;3.90;;;21.10;57.00;;;;;;7375689;19;20355;-73
2022/05/21 07:47:57;;;;;;;6.65;2.88;;;21.20;56.70;;;;;;7393446;19;20038;-73
2022/05/21 07:50:26;;;;;;;12.45;3.17;;;21.20;56.50;;;;;;7374175;19;20022;-73
2022/05/21 07:52:58;;;;;;;9.68;3.30;;;21.30;56.60;;;;;;7373000;19;20018;-73
2022/05/21 07:55:26;;;;;;;;;;;21.30;56.50;;;;;;7375114;19;20070;-72
2022/05/21 07:57:55;;;;;;;10.63;3.45;;;21.40;55.80;;;;;;7372343;19;20303;-73
2022/05/21 08:00:24;;;;;;;10.75;3.20;;;21.40;55.20;;;;;;7374343;19;20015;-73
2022/05/21 08:02:53;;;;;;;11.13;3.42;;;21.30;55.20;;;;;;7394708;19;20500;-73
2022/05/21 08:05:22;;;;;;;7.70;2.80;;;21.30;55.40;;;;;;7370793;19;20031;-73
2022/05/21 08:07:52;;;;;;;7.75;3.05;;;21.40;55.40;;;;;;7370857;19;20110;-73
2022/05/21 08:10:24;;;;;;;8.15;2.92;;;21.40;55.70;;;;;;7371856;19;20018;-74
2022/05/21 08:12:53;;;;;;;9.27;3.08;;;21.40;55.70;;;;;;7372753;19;20006;-74
2022/05/21 08:15:23;;;;;;;10.90;3.05;;;21.50;55.60;;;;;;7373927;19;20085;-73
2022/05/21 08:17:52;;;;;;;9.25;3.10;;;21.50;55.50;;;;;;7392505;19;20345;-77
2022/05/21 08:20:21;;;;;;;12.82;3.20;;;21.50;55.20;;;;;;7372593;19;20025;-74
2022/05/21 08:28:15;;;;;;;13.38;3.53;;;21.30;55.50;;;;;;7374003;19;20014;-73
2022/05/21 08:30:45;;;;;;;10.80;2.85;;;21.30;55.70;;;;;;7374467;19;20035;-74
2022/05/21 08:33:15;;;;;;;7.78;3.50;;;21.30;55.50;;;;;;7369560;19;20085;-73
2022/05/21 08:35:44;;;;;;;10.35;3.10;;;21.40;55.40;;;;;;7394453;19;20025;-73
2022/05/21 08:38:15;;;;;;;7.75;3.17;;;21.40;55.30;;;;;;7371057;19;20019;-75
2022/05/21 08:40:54;;;;;;;11.25;2.45;;;21.40;55.70;;;;;;7370533;19;20038;-74
2022/05/21 08:43:25;;;;;;;160.80;103.40;;;21.50;55.10;;;;;;7372992;19;20025;-74
2022/05/21 08:46:05;;;;;;;;;;;21.50;54.90;;;;;;7374402;19;20018;-81
2022/05/21 08:48:36;;;;;;;9.57;3.17;;;21.60;55.00;;;;;;7374074;19;19974;-81
2022/05/21 08:51:19;;;;;;;7.55;3.00;;;21.60;54.60;;;;;;7384566;19;20018;-80
2022/05/21 08:53:52;;;;;;;8.32;2.58;;;21.50;54.60;;;;;;7397768;19;20018;-81
2022/05/21 08:56:24;;;;;;;4.60;2.35;;;21.60;54.40;;;;;;7374526;19;20058;-81
2022/05/21 08:58:56;;;;;;;12.80;2.80;;;21.60;54.50;;;;;;7371293;19;20061;-81
2022/05/21 09:01:27;;;;;;;6.07;2.30;;;21.60;54.00;;;;;;7372528;19;20545;-81
2022/05/21 09:03:57;;;;;;;8.75;1.92;;;21.70;53.50;;;;;;7373484;19;20400;-81
2022/05/21 09:06:36;;;;;;;8.80;2.30;;;21.70;52.50;;;;;;7374432;19;20018;-81
2022/05/21 09:09:12;;;;;;;7.63;2.00;;;21.50;51.90;;;;;;7382496;19;20022;-81
2022/05/21 09:11:50;;;;;;;4.07;1.52;;;21.40;51.90;;;;;;7395112;19;20507;-82
2022/05/21 09:14:32;;;;;;;7.22;1.95;;;21.40;51.60;;;;;;7375470;19;20018;-82
2022/05/21 09:17:00;;;;;;;4.38;1.77;;;21.50;51.90;;;;;;7372784;19;20018;-81
2022/05/21 09:19:35;;;;;;;6.65;1.60;;;21.60;52.10;;;;;;7372273;19;20078;-80
2022/05/21 09:22:10;;;;;;;6.25;1.95;;;21.60;51.30;;;;;;7371349;19;20014;-81
2022/05/21 09:24:42;;;;;;;8.40;2.20;;;21.70;50.90;;;;;;7374585;19;20027;-81
2022/05/21 09:27:44;;;;;;;4.35;1.90;;;21.70;51.10;;;;;;7372900;19;20035;-82
2022/05/21 09:30:14;;;;;;;;;;;21.60;51.00;;;;;;7371570;19;20015;-82
2022/05/21 09:32:45;;;;;;;4.47;1.73;;;21.70;51.20;;;;;;7392891;19;19941;-82
2022/05/21 09:35:17;;;;;;;4.32;1.73;;;21.70;51.30;;;;;;7371962;19;20015;-81
2022/05/21 09:37:47;;;;;;;7.75;2.22;;;21.70;51.60;;;;;;7367156;19;20063;-82
2022/05/21 09:40:33;;;;;;;7.68;1.77;;;21.70;51.40;;;;;;7370670;19;20109;-82
2022/05/21 09:46:17;;;;;;;8.10;2.15;;;21.80;51.80;;;;;;7369972;19;20018;-81
2022/05/21 09:48:46;;;;;;;8.30;2.42;;;21.70;51.70;;;;;;7371311;19;20082;-82
2022/05/21 09:51:27;;;;;;;7.05;2.28;;;21.70;51.70;;;;;;7370176;19;20022;-80
2022/05/21 09:53:57;;;;;;;5.47;1.90;;;21.70;51.80;;;;;;7392989;19;20024;-81
2022/05/21 09:56:27;;;;;;;6.47;1.95;;;21.70;51.80;;;;;;7378840;19;20021;-82
2022/05/21 09:59:14;;;;;;;6.73;2.07;;;21.80;51.60;;;;;;7374192;19;20074;-81
2022/05/21 10:01:44;;;;;;;7.68;2.22;;;21.80;51.30;;;;;;7372130;19;20014;-82
2022/05/21 10:04:24;;;;;;;4.85;2.20;;;21.90;51.40;;;;;;7374005;19;20103;-82
2022/05/21 10:07:03;;;;;;;7.18;2.45;;;22.00;51.30;;;;;;7372230;19;20077;-80
2022/05/21 10:12:39;;;;;;;4.82;2.03;;;22.10;51.30;;;;;;7369550;19;20017;-80
2022/05/21 10:15:15;;;;;;;9.55;2.75;;;22.10;51.50;;;;;;7371907;19;20392;-81
2022/05/21 10:17:47;;;;;;;6.50;2.63;;;22.10;51.60;;;;;;7391362;19;20039;-80
2022/05/21 10:20:21;;;;;;;5.05;2.10;;;22.20;51.50;;;;;;7371249;19;20014;-79
2022/05/21 10:22:56;;;;;;;5.95;2.00;;;22.20;51.50;;;;;;7370724;19;20014;-79
2022/05/21 10:25:28;;;;;;;8.60;2.55;;;22.30;51.10;;;;;;7373746;19;20015;-79
2022/05/21 10:28:17;;;;;;;252.40;164.23;;;22.40;51.50;;;;;;7372080;19;20064;-79
2022/05/21 10:31:16;;;;;;;9.93;5.18;;;22.40;50.60;;;;;;7371102;19;20134;-77
2022/05/21 10:34:03;;;;;;;9.10;2.60;;;22.60;50.40;;;;;;7369939;19;20014;-77
2022/05/21 10:36:48;;;;;;;10.15;2.55;;;22.40;51.70;;;;;;7371033;19;20035;-76
2022/05/21 10:39:31;;;;;;;7.80;2.25;;;22.50;51.50;;;;;;7370004;19;20301;-77
2022/05/21 10:42:26;;;;;;;4.43;2.00;;;22.50;50.90;;;;;;7391059;19;20074;-78
2022/05/21 10:45:15;;;;;;;8.38;2.50;;;22.60;51.10;;;;;;7369101;19;20086;-78
2022/05/21 10:48:14;;;;;;;8.10;2.10;;;22.70;50.90;;;;;;7370009;19;20015;-79
2022/05/21 10:50:51;;;;;;;10.00;2.20;;;22.70;50.70;;;;;;7367425;19;20032;-78
2022/05/21 10:53:39;;;;;;;8.13;2.17;;;22.80;50.60;;;;;;7367405;19;20017;-78
2022/05/21 10:56:20;;;;;;;6.05;1.90;;;22.90;50.00;;;;;;7367927;19;20385;-78
2022/05/21 10:59:05;;;;;;;7.00;1.95;;;22.90;50.00;;;;;;7368467;19;20015;-78
2022/05/21 11:01:41;;;;;;;6.80;2.42;;;23.00;50.00;;;;;;7393704;19;20023;-77
2022/05/21 11:04:49;;;;;;;7.28;2.58;;;23.20;49.70;;;;;;7338058;19;20025;-77
2022/05/21 11:07:43;;;;;;;6.70;2.28;;;23.40;49.70;;;;;;7368499;19;20036;-78
2022/05/21 11:10:25;;;;;;;7.95;2.22;;;23.40;49.30;;;;;;7365175;19;20659;-77
2022/05/21 11:12:59;;;;;;;8.15;2.72;;;23.30;49.60;;;;;;7376330;19;20019;-77
2022/05/21 11:15:36;;;;;;;6.82;2.15;;;23.30;49.50;;;;;;7385165;19;20679;-78
2022/05/21 11:18:10;;;;;;;7.53;2.63;;;23.40;50.10;;;;;;7365314;19;20019;-77
2022/05/21 11:20:46;;;;;;;8.82;2.58;;;23.40;49.90;;;;;;7367231;19;21226;-77
2022/05/21 11:23:22;;;;;;;5.78;2.33;;;23.50;49.10;;;;;;7370682;19;20031;-77
2022/05/21 11:25:57;;;;;;;6.90;2.47;;;23.50;49.20;;;;;;7367192;19;20117;-77
2022/05/21 11:28:34;;;;;;;5.15;2.22;;;23.60;49.30;;;;;;7370383;19;20335;-77
2022/05/21 11:31:08;;;;;;;4.10;2.00;;;23.60;49.60;;;;;;7368935;19;20015;-78
2022/05/21 11:39:09;;;;;;;11.00;6.15;;;23.90;48.90;;;;;;7367093;19;20125;-79
2022/05/21 11:42:01;;;;;;;5.07;2.83;;;23.90;48.80;;;;;;7369792;19;20032;-79
2022/05/21 11:47:44;;;;;;;4.97;1.75;;;23.80;48.30;;;;;;7370310;19;20024;-79
2022/05/21 11:50:18;;;;;;;6.65;2.03;;;23.90;48.60;;;;;;7369486;19;20023;-79
2022/05/21 11:53:09;;;;;;;9.48;3.05;;;24.00;48.90;;;;;;7370211;19;20336;-80
2022/05/21 11:56:08;;;;;;;9.73;2.58;;;24.00;48.00;;;;;;7368197;19;20085;-81
2022/05/21 11:59:24;;;;;;;7.97;2.10;;;24.00;48.40;;;;;;7369660;19;20010;-78
2022/05/21 12:02:12;;;;;;;3.95;1.95;;;23.70;48.40;;;;;;7367711;19;20030;-79
2022/05/21 12:05:01;;;;;;;8.40;2.13;;;23.70;48.00;;;;;;7366967;19;20081;-77
2022/05/21 12:08:01;;;;;;;8.05;2.30;;;23.70;48.30;;;;;;7370388;19;20581;-85
2022/05/21 12:10:55;;;;;;;6.15;2.05;;;23.50;48.20;;;;;;7376416;19;20026;-79
2022/05/21 12:13:46;;;;;;;8.68;1.90;;;23.40;48.10;;;;;;7369333;19;20102;-76
2022/05/21 12:16:44;;;;;;;4.07;1.87;;;23.20;49.10;;;;;;7371520;19;20044;-75
2022/05/21 12:19:13;;;;;;;5.07;1.90;;;23.30;49.30;;;;;;7367254;19;20507;-76
2022/05/21 12:22:01;;;;;;;4.93;2.05;;;23.40;49.00;;;;;;7394950;19;20078;-76
2022/05/21 12:24:40;;;;;;;3.65;1.65;;;23.50;49.10;;;;;;7368891;19;20015;-76
2022/05/21 12:27:23;;;;;;;5.85;2.00;;;23.50;48.70;;;;;;7373305;19;20018;-75
2022/05/21 12:29:56;;;;;;;8.57;1.90;;;23.70;48.50;;;;;;7374936;19;20114;-76
2022/05/21 12:32:27;;;;;;;6.95;2.70;;;24.00;48.60;;;;;;7374564;19;20002;-76
2022/05/21 12:35:25;;;;;;;89.93;54.80;;;24.20;48.90;;;;;;7369982;19;20014;-76
2022/05/21 12:37:59;;;;;;;4.93;2.15;;;24.40;48.10;;;;;;7370058;19;20015;-77
2022/05/21 12:40:34;;;;;;;3.88;1.70;;;24.60;47.60;;;;;;7370356;19;20450;-77
2022/05/21 12:43:12;;;;;;;7.43;1.75;;;24.70;46.80;;;;;;7373479;19;20090;-77
2022/05/21 12:45:44;;;;;;;5.15;1.63;;;24.70;46.30;;;;;;7393801;19;20633;-76
2022/05/21 12:48:16;;;;;;;9.40;1.88;;;24.80;46.00;;;;;;7373157;19;20018;-76
2022/05/21 12:50:52;;;;;;;3.35;1.80;;;24.90;46.30;;;;;;7371745;19;20045;-76
2022/05/21 12:53:26;;;;;;;7.40;1.90;;;24.90;45.60;;;;;;7373645;19;20100;-76
2022/05/21 12:56:04;;;;;;;4.30;1.70;;;24.80;46.00;;;;;;7371336;19;20022;-76
2022/05/21 12:58:35;;;;;;;4.28;2.08;;;24.80;45.80;;;;;;7374478;19;20019;-76
2022/05/21 13:01:05;;;;;;;5.82;1.90;;;24.80;45.90;;;;;;7372230;19;20019;-75
2022/05/21 13:03:36;;;;;;;6.30;1.90;;;24.80;45.80;;;;;;7392248;19;20044;-76
2022/05/21 13:06:08;;;;;;;6.45;2.13;;;24.70;45.80;;;;;;7372918;19;20024;-77
2022/05/21 13:08:41;;;;;;;3.70;2.00;;;24.70;46.60;;;;;;7371957;19;20011;-76
2022/05/21 13:11:19;;;;;;;4.97;2.05;;;24.60;46.00;;;;;;7371002;19;20070;-76
2022/05/21 13:13:59;;;;;;;4.15;1.80;;;24.60;46.10;;;;;;7371429;19;20053;-76
2022/05/21 13:16:28;;;;;;;4.45;1.80;;;24.60;46.00;;;;;;7373611;19;20577;-76
2022/05/21 13:19:28;;;;;;;4.35;1.85;;;24.60;46.30;;;;;;7371140;19;20443;-76
2022/05/21 13:22:03;;;;;;;3.95;1.40;;;24.50;46.80;;;;;;7371635;19;20026;-76
2022/05/21 13:24:42;;;;;;;5.55;1.98;;;24.50;47.30;;;;;;7396234;19;20022;-76
2022/05/21 13:27:13;;;;;;;5.60;1.20;;;24.50;46.80;;;;;;7371547;19;20025;-76
2022/05/21 13:29:44;;;;;;;;;;;24.50;46.90;;;;;;7371771;19;20018;-76
2022/05/21 13:32:25;;;;;;;4.20;1.58;;;24.70;46.80;;;;;;7372217;19;20141;-76
2022/05/21 13:34:56;;;;;;;3.38;1.70;;;24.90;46.50;;;;;;7372194;19;20053;-76
2022/05/21 13:37:33;;;;;;;6.32;1.95;;;25.10;46.30;;;;;;7372554;19;20011;-76
2022/05/21 13:40:06;;;;;;;4.57;2.25;;;25.30;45.80;;;;;;7370958;19;20081;-76
2022/05/21 13:42:38;;;;;;;5.82;1.50;;;25.40;45.20;;;;;;7394651;19;20389;-76
2022/05/21 13:45:14;;;;;;;5.28;1.80;;;25.40;45.30;;;;;;7371558;19;20126;-75
2022/05/21 13:47:50;;;;;;;5.72;1.85;;;25.40;45.70;;;;;;7371536;19;20077;-75
2022/05/21 13:50:24;;;;;;;4.10;1.73;;;25.40;45.50;;;;;;7371309;19;20022;-76
2022/05/21 13:52:53;;;;;;;5.07;2.05;;;25.40;44.70;;;;;;7372237;19;20127;-76
2022/05/21 13:55:22;;;;;;;4.35;1.80;;;25.30;44.60;;;;;;7372849;19;20078;-75
2022/05/21 13:57:51;;;;;;;3.22;1.60;;;25.30;45.50;;;;;;7392475;19;20025;-76